sensor_id;sensor_type;location;lat;lon;timestamp;P1;durP1;ratioP1;P2;durP2;ratioP2
34359;SDS011;20624;55.870;26.506;2023-04-01T00:00:14;10.20;;;4.50;;
34359;SDS011;20624;55.870;26.506;2023-04-01T00:02:42;10.75;;;4.28;;
34359;SDS011;20624;55.870;26.506;2023-04-01T00:05:10;12.35;;;4.90;;
34359;SDS011;20624;55.870;26.506;2023-04-01T00:07:38;14.30;;;5.13;;
34359;SDS011;20624;55.870;26.506;2023-04-01T00:10:06;12.20;;;4.70;;
34359;SDS011;20624;55.870;26.506;2023-04-01T00:12:34;16.70;;;5.57;;
34359;SDS011;20624;55.870;26.506;2023-04-01T00:15:03;32.80;;;6.78;;
34359;SDS011;20624;55.870;26.506;2023-04-01T00:17:30;17.15;;;5.00;;
34359;SDS011;20624;55.870;26.506;2023-04-01T00:19:58;11.70;;;4.60;;
34359;SDS011;20624;55.870;26.506;2023-04-01T00:22:26;14.77;;;4.53;;
34359;SDS011;20624;55.870;26.506;2023-04-01T00:24:54;14.15;;;4.93;;
34359;SDS011;20624;55.870;26.506;2023-04-01T00:27:22;16.20;;;5.75;;
34359;SDS011;20624;55.870;26.506;2023-04-01T00:29:55;11.23;;;4.00;;
34359;SDS011;20624;55.870;26.506;2023-04-01T00:34:50;13.65;;;5.10;;
34359;SDS011;20624;55.870;26.506;2023-04-01T00:39:47;12.25;;;4.97;;
34359;SDS011;20624;55.870;26.506;2023-04-01T00:42:15;10.07;;;5.00;;
34359;SDS011;20624;55.870;26.506;2023-04-01T00:44:44;14.38;;;5.00;;
34359;SDS011;20624;55.870;26.506;2023-04-01T00:47:12;14.45;;;5.00;;
34359;SDS011;20624;55.870;26.506;2023-04-01T00:49:42;11.82;;;4.95;;
34359;SDS011;20624;55.870;26.506;2023-04-01T00:52:18;14.05;;;5.15;;
34359;SDS011;20624;55.870;26.506;2023-04-01T00:54:47;11.93;;;4.07;;
34359;SDS011;20624;55.870;26.506;2023-04-01T00:57:20;15.00;;;5.40;;
34359;SDS011;20624;55.870;26.506;2023-04-01T00:59:49;11.60;;;4.47;;
34359;SDS011;20624;55.870;26.506;2023-04-01T01:02:19;14.15;;;5.05;;
34359;SDS011;20624;55.870;26.506;2023-04-01T01:04:47;12.80;;;5.10;;
34359;SDS011;20624;55.870;26.506;2023-04-01T01:10:05;12.60;;;5.13;;
34359;SDS011;20624;55.870;26.506;2023-04-01T01:12:31;14.43;;;4.65;;
34359;SDS011;20624;55.870;26.506;2023-04-01T01:15:06;14.02;;;4.78;;
34359;SDS011;20624;55.870;26.506;2023-04-01T01:26:17;11.15;;;4.70;;
34359;SDS011;20624;55.870;26.506;2023-04-01T01:32:30;10.57;;;4.32;;
34359;SDS011;20624;55.870;26.506;2023-04-01T01:37:44;15.20;;;5.43;;
34359;SDS011;20624;55.870;26.506;2023-04-01T01:42:44;12.82;;;5.13;;
34359;SDS011;20624;55.870;26.506;2023-04-01T01:45:13;14.68;;;5.05;;
34359;SDS011;20624;55.870;26.506;2023-04-01T01:47:44;16.05;;;5.28;;
34359;SDS011;20624;55.870;26.506;2023-04-01T01:50:12;15.48;;;4.88;;
34359;SDS011;20624;55.870;26.506;2023-04-01T01:52:40;13.48;;;4.70;;
34359;SDS011;20624;55.870;26.506;2023-04-01T01:55:26;11.90;;;4.75;;
34359;SDS011;20624;55.870;26.506;2023-04-01T01:57:58;15.55;;;5.57;;
34359;SDS011;20624;55.870;26.506;2023-04-01T02:00:27;12.20;;;4.53;;
34359;SDS011;20624;55.870;26.506;2023-04-01T02:02:58;16.60;;;5.70;;
34359;SDS011;20624;55.870;26.506;2023-04-01T02:05:26;12.93;;;4.47;;
34359;SDS011;20624;55.870;26.506;2023-04-01T02:10:28;13.23;;;6.18;;
34359;SDS011;20624;55.870;26.506;2023-04-01T02:12:59;14.00;;;5.15;;
34359;SDS011;20624;55.870;26.506;2023-04-01T02:15:28;12.80;;;4.68;;
34359;SDS011;20624;55.870;26.506;2023-04-01T02:18:01;12.95;;;4.63;;
34359;SDS011;20624;55.870;26.506;2023-04-01T02:20:29;16.23;;;5.20;;
34359;SDS011;20624;55.870;26.506;2023-04-01T02:22:57;16.48;;;5.40;;
34359;SDS011;20624;55.870;26.506;2023-04-01T02:25:27;11.43;;;4.20;;
34359;SDS011;20624;55.870;26.506;2023-04-01T02:27:56;10.18;;;4.30;;
34359;SDS011;20624;55.870;26.506;2023-04-01T02:30:25;13.65;;;4.72;;
34359;SDS011;20624;55.870;26.506;2023-04-01T02:32:56;11.73;;;4.22;;
34359;SDS011;20624;55.870;26.506;2023-04-01T02:35:27;12.50;;;5.05;;
34359;SDS011;20624;55.870;26.506;2023-04-01T02:37:55;10.77;;;4.50;;
34359;SDS011;20624;55.870;26.506;2023-04-01T02:40:26;14.88;;;4.85;;
34359;SDS011;20624;55.870;26.506;2023-04-01T02:42:54;9.60;;;3.58;;
34359;SDS011;20624;55.870;26.506;2023-04-01T02:45:21;13.50;;;4.60;;
34359;SDS011;20624;55.870;26.506;2023-04-01T02:47:49;11.20;;;4.50;;
34359;SDS011;20624;55.870;26.506;2023-04-01T02:50:17;11.65;;;4.60;;
34359;SDS011;20624;55.870;26.506;2023-04-01T02:52:45;13.23;;;4.75;;
34359;SDS011;20624;55.870;26.506;2023-04-01T02:55:12;14.48;;;4.95;;
34359;SDS011;20624;55.870;26.506;2023-04-01T02:57:41;19.40;;;5.93;;
34359;SDS011;20624;55.870;26.506;2023-04-01T03:00:09;15.93;;;4.93;;
34359;SDS011;20624;55.870;26.506;2023-04-01T03:02:38;19.17;;;5.28;;
34359;SDS011;20624;55.870;26.506;2023-04-01T03:05:06;12.88;;;5.43;;
34359;SDS011;20624;55.870;26.506;2023-04-01T03:07:34;17.65;;;5.22;;
34359;SDS011;20624;55.870;26.506;2023-04-01T03:10:01;19.85;;;6.15;;
34359;SDS011;20624;55.870;26.506;2023-04-01T03:12:29;13.02;;;4.68;;
34359;SDS011;20624;55.870;26.506;2023-04-01T03:14:57;15.15;;;5.30;;
34359;SDS011;20624;55.870;26.506;2023-04-01T03:17:37;16.50;;;5.13;;
34359;SDS011;20624;55.870;26.506;2023-04-01T03:20:07;13.45;;;4.70;;
34359;SDS011;20624;55.870;26.506;2023-04-01T03:22:37;17.25;;;5.28;;
34359;SDS011;20624;55.870;26.506;2023-04-01T03:25:08;9.75;;;3.90;;
34359;SDS011;20624;55.870;26.506;2023-04-01T03:27:36;16.10;;;5.53;;
34359;SDS011;20624;55.870;26.506;2023-04-01T03:30:04;12.55;;;4.65;;
34359;SDS011;20624;55.870;26.506;2023-04-01T03:32:32;14.90;;;4.95;;
34359;SDS011;20624;55.870;26.506;2023-04-01T03:35:00;11.88;;;5.18;;
34359;SDS011;20624;55.870;26.506;2023-04-01T03:37:27;16.77;;;6.10;;
34359;SDS011;20624;55.870;26.506;2023-04-01T03:39:55;15.75;;;5.10;;
34359;SDS011;20624;55.870;26.506;2023-04-01T03:42:23;11.23;;;4.80;;
34359;SDS011;20624;55.870;26.506;2023-04-01T03:44:50;14.63;;;4.25;;
34359;SDS011;20624;55.870;26.506;2023-04-01T03:47:18;12.02;;;4.68;;
34359;SDS011;20624;55.870;26.506;2023-04-01T03:49:46;11.57;;;4.60;;
34359;SDS011;20624;55.870;26.506;2023-04-01T03:52:14;14.25;;;4.80;;
34359;SDS011;20624;55.870;26.506;2023-04-01T03:54:42;11.95;;;4.45;;
34359;SDS011;20624;55.870;26.506;2023-04-01T03:57:10;8.65;;;3.50;;
34359;SDS011;20624;55.870;26.506;2023-04-01T03:59:37;13.82;;;4.50;;
34359;SDS011;20624;55.870;26.506;2023-04-01T04:02:05;14.75;;;4.60;;
34359;SDS011;20624;55.870;26.506;2023-04-01T04:04:33;13.05;;;4.35;;
34359;SDS011;20624;55.870;26.506;2023-04-01T04:07:01;9.93;;;4.25;;
34359;SDS011;20624;55.870;26.506;2023-04-01T04:09:30;15.57;;;5.10;;
34359;SDS011;20624;55.870;26.506;2023-04-01T04:11:57;10.27;;;4.55;;
34359;SDS011;20624;55.870;26.506;2023-04-01T04:14:25;12.68;;;4.70;;
34359;SDS011;20624;55.870;26.506;2023-04-01T04:16:53;14.80;;;4.60;;
34359;SDS011;20624;55.870;26.506;2023-04-01T04:19:20;10.30;;;4.05;;
34359;SDS011;20624;55.870;26.506;2023-04-01T04:21:48;13.38;;;4.65;;
34359;SDS011;20624;55.870;26.506;2023-04-01T04:24:16;18.02;;;5.28;;
34359;SDS011;20624;55.870;26.506;2023-04-01T04:26:43;13.63;;;4.68;;
34359;SDS011;20624;55.870;26.506;2023-04-01T04:29:11;12.18;;;4.55;;
34359;SDS011;20624;55.870;26.506;2023-04-01T04:31:39;10.75;;;4.45;;
34359;SDS011;20624;55.870;26.506;2023-04-01T04:34:06;17.58;;;4.90;;
34359;SDS011;20624;55.870;26.506;2023-04-01T04:36:34;14.73;;;5.30;;
34359;SDS011;20624;55.870;26.506;2023-04-01T04:39:02;16.38;;;5.30;;
34359;SDS011;20624;55.870;26.506;2023-04-01T04:41:30;12.73;;;5.18;;
34359;SDS011;20624;55.870;26.506;2023-04-01T04:43:58;21.27;;;5.43;;
34359;SDS011;20624;55.870;26.506;2023-04-01T04:46:25;14.10;;;4.75;;
34359;SDS011;20624;55.870;26.506;2023-04-01T04:48:53;13.32;;;4.25;;
34359;SDS011;20624;55.870;26.506;2023-04-01T04:51:21;12.27;;;4.50;;
34359;SDS011;20624;55.870;26.506;2023-04-01T04:53:49;12.05;;;4.05;;
34359;SDS011;20624;55.870;26.506;2023-04-01T04:56:21;13.75;;;4.68;;
34359;SDS011;20624;55.870;26.506;2023-04-01T04:58:51;11.35;;;4.38;;
34359;SDS011;20624;55.870;26.506;2023-04-01T05:01:19;16.67;;;5.38;;
34359;SDS011;20624;55.870;26.506;2023-04-01T05:03:47;10.13;;;3.83;;
34359;SDS011;20624;55.870;26.506;2023-04-01T05:06:15;10.98;;;3.72;;
34359;SDS011;20624;55.870;26.506;2023-04-01T05:08:43;9.65;;;4.15;;
34359;SDS011;20624;55.870;26.506;2023-04-01T05:11:14;9.95;;;3.80;;
34359;SDS011;20624;55.870;26.506;2023-04-01T05:13:44;11.50;;;3.80;;
34359;SDS011;20624;55.870;26.506;2023-04-01T05:16:16;11.52;;;3.83;;
34359;SDS011;20624;55.870;26.506;2023-04-01T05:18:45;11.40;;;3.78;;
34359;SDS011;20624;55.870;26.506;2023-04-01T05:21:13;11.52;;;3.75;;
34359;SDS011;20624;55.870;26.506;2023-04-01T05:23:41;8.68;;;3.00;;
34359;SDS011;20624;55.870;26.506;2023-04-01T05:26:11;10.65;;;2.63;;
34359;SDS011;20624;55.870;26.506;2023-04-01T05:28:39;16.80;;;3.72;;
34359;SDS011;20624;55.870;26.506;2023-04-01T05:31:07;9.25;;;3.08;;
34359;SDS011;20624;55.870;26.506;2023-04-01T05:33:35;7.95;;;2.33;;
34359;SDS011;20624;55.870;26.506;2023-04-01T05:36:07;11.13;;;2.70;;
34359;SDS011;20624;55.870;26.506;2023-04-01T05:38:38;7.63;;;2.60;;
34359;SDS011;20624;55.870;26.506;2023-04-01T05:41:06;7.57;;;2.58;;
34359;SDS011;20624;55.870;26.506;2023-04-01T05:43:37;7.65;;;2.15;;
34359;SDS011;20624;55.870;26.506;2023-04-01T05:46:05;7.72;;;2.53;;
34359;SDS011;20624;55.870;26.506;2023-04-01T05:48:33;7.55;;;2.70;;
34359;SDS011;20624;55.870;26.506;2023-04-01T05:51:01;5.60;;;2.40;;
34359;SDS011;20624;55.870;26.506;2023-04-01T05:53:29;9.00;;;3.65;;
34359;SDS011;20624;55.870;26.506;2023-04-01T05:56:01;16.73;;;3.90;;
34359;SDS011;20624;55.870;26.506;2023-04-01T05:58:29;6.47;;;2.40;;
34359;SDS011;20624;55.870;26.506;2023-04-01T06:01:01;11.65;;;3.28;;
34359;SDS011;20624;55.870;26.506;2023-04-01T06:03:36;9.48;;;2.63;;
34359;SDS011;20624;55.870;26.506;2023-04-01T06:06:10;11.55;;;3.42;;
34359;SDS011;20624;55.870;26.506;2023-04-01T06:08:43;11.48;;;3.40;;
34359;SDS011;20624;55.870;26.506;2023-04-01T06:19:28;9.77;;;3.40;;
34359;SDS011;20624;55.870;26.506;2023-04-01T06:25:02;9.20;;;3.30;;
34359;SDS011;20624;55.870;26.506;2023-04-01T06:30:57;7.40;;;2.13;;
34359;SDS011;20624;55.870;26.506;2023-04-01T06:35:40;8.02;;;2.42;;
34359;SDS011;20624;55.870;26.506;2023-04-01T06:38:30;7.70;;;2.00;;
34359;SDS011;20624;55.870;26.506;2023-04-01T06:43:43;10.30;;;2.38;;
34359;SDS011;20624;55.870;26.506;2023-04-01T06:47:20;8.55;;;2.40;;
34359;SDS011;20624;55.870;26.506;2023-04-01T06:54:49;8.40;;;2.85;;
34359;SDS011;20624;55.870;26.506;2023-04-01T06:59:47;7.57;;;2.10;;
34359;SDS011;20624;55.870;26.506;2023-04-01T07:02:27;15.10;;;3.03;;
34359;SDS011;20624;55.870;26.506;2023-04-01T07:04:56;7.45;;;2.17;;
34359;SDS011;20624;55.870;26.506;2023-04-01T07:07:32;6.18;;;2.25;;
34359;SDS011;20624;55.870;26.506;2023-04-01T07:10:03;21.15;;;4.15;;
34359;SDS011;20624;55.870;26.506;2023-04-01T07:15:48;11.75;;;3.05;;
34359;SDS011;20624;55.870;26.506;2023-04-01T07:17:51;7.82;;;2.15;;
34359;SDS011;20624;55.870;26.506;2023-04-01T07:20:21;12.27;;;3.20;;
34359;SDS011;20624;55.870;26.506;2023-04-01T07:22:51;11.57;;;2.97;;
34359;SDS011;20624;55.870;26.506;2023-04-01T07:25:21;7.97;;;2.28;;
34359;SDS011;20624;55.870;26.506;2023-04-01T07:28:04;8.68;;;2.55;;
34359;SDS011;20624;55.870;26.506;2023-04-01T07:30:36;5.22;;;1.90;;
34359;SDS011;20624;55.870;26.506;2023-04-01T07:40:50;14.45;;;3.05;;
34359;SDS011;20624;55.870;26.506;2023-04-01T07:53:52;5.32;;;1.90;;
34359;SDS011;20624;55.870;26.506;2023-04-01T08:14:08;9.43;;;2.38;;
34359;SDS011;20624;55.870;26.506;2023-04-01T08:16:47;7.75;;;1.80;;
34359;SDS011;20624;55.870;26.506;2023-04-01T08:19:39;10.77;;;3.00;;
34359;SDS011;20624;55.870;26.506;2023-04-01T08:22:23;8.15;;;2.03;;
34359;SDS011;20624;55.870;26.506;2023-04-01T08:24:54;6.35;;;1.90;;
34359;SDS011;20624;55.870;26.506;2023-04-01T08:30:05;13.25;;;2.75;;
34359;SDS011;20624;55.870;26.506;2023-04-01T08:32:36;10.75;;;2.83;;
34359;SDS011;20624;55.870;26.506;2023-04-01T08:37:48;7.50;;;2.10;;
34359;SDS011;20624;55.870;26.506;2023-04-01T08:58:05;12.65;;;3.25;;
34359;SDS011;20624;55.870;26.506;2023-04-01T09:03:27;20.33;;;3.78;;
34359;SDS011;20624;55.870;26.506;2023-04-01T09:09:02;5.60;;;1.95;;
34359;SDS011;20624;55.870;26.506;2023-04-01T09:27:29;8.98;;;2.20;;
34359;SDS011;20624;55.870;26.506;2023-04-01T09:30:07;9.55;;;2.53;;
34359;SDS011;20624;55.870;26.506;2023-04-01T09:40:43;9.57;;;2.20;;
34359;SDS011;20624;55.870;26.506;2023-04-01T09:54:01;9.00;;;3.00;;
34359;SDS011;20624;55.870;26.506;2023-04-01T09:56:42;5.28;;;2.00;;
34359;SDS011;20624;55.870;26.506;2023-04-01T10:19:49;7.22;;;2.35;;
34359;SDS011;20624;55.870;26.506;2023-04-01T10:40:20;4.07;;;1.85;;
34359;SDS011;20624;55.870;26.506;2023-04-01T11:07:12;17.27;;;3.38;;
34359;SDS011;20624;55.870;26.506;2023-04-01T11:15:44;22.92;;;3.88;;
34359;SDS011;20624;55.870;26.506;2023-04-01T11:29:52;6.80;;;2.28;;
34359;SDS011;20624;55.870;26.506;2023-04-01T11:32:50;10.43;;;2.60;;
34359;SDS011;20624;55.870;26.506;2023-04-01T11:46:43;9.68;;;3.00;;
34359;SDS011;20624;55.870;26.506;2023-04-01T11:54:51;7.78;;;2.63;;
34359;SDS011;20624;55.870;26.506;2023-04-01T11:57:34;10.77;;;2.65;;
34359;SDS011;20624;55.870;26.506;2023-04-01T12:14:02;9.60;;;2.50;;
34359;SDS011;20624;55.870;26.506;2023-04-01T12:16:46;17.55;;;3.58;;
34359;SDS011;20624;55.870;26.506;2023-04-01T12:19:43;7.72;;;2.35;;
34359;SDS011;20624;55.870;26.506;2023-04-01T12:24:46;13.13;;;3.67;;
34359;SDS011;20624;55.870;26.506;2023-04-01T12:30:56;13.70;;;4.07;;
34359;SDS011;20624;55.870;26.506;2023-04-01T12:36:22;35.67;;;6.32;;
34359;SDS011;20624;55.870;26.506;2023-04-01T12:39:14;5.97;;;2.22;;
34359;SDS011;20624;55.870;26.506;2023-04-01T12:42:10;18.20;;;3.75;;
34359;SDS011;20624;55.870;26.506;2023-04-01T12:45:23;7.32;;;2.80;;
34359;SDS011;20624;55.870;26.506;2023-04-01T12:50:33;9.30;;;2.53;;
34359;SDS011;20624;55.870;26.506;2023-04-01T13:10:37;21.40;;;3.92;;
34359;SDS011;20624;55.870;26.506;2023-04-01T13:18:28;15.13;;;3.67;;
34359;SDS011;20624;55.870;26.506;2023-04-01T13:23:42;9.18;;;2.80;;
34359;SDS011;20624;55.870;26.506;2023-04-01T13:34:21;18.02;;;3.67;;
34359;SDS011;20624;55.870;26.506;2023-04-01T13:42:40;4.05;;;1.20;;
34359;SDS011;20624;55.870;26.506;2023-04-01T13:46:05;13.30;;;2.85;;
34359;SDS011;20624;55.870;26.506;2023-04-01T13:48:41;22.42;;;3.38;;
34359;SDS011;20624;55.870;26.506;2023-04-01T14:11:17;13.55;;;2.70;;
34359;SDS011;20624;55.870;26.506;2023-04-01T14:19:41;4.75;;;0.73;;
34359;SDS011;20624;55.870;26.506;2023-04-01T14:22:38;8.93;;;1.50;;
34359;SDS011;20624;55.870;26.506;2023-04-01T14:33:43;7.00;;;2.10;;
34359;SDS011;20624;55.870;26.506;2023-04-01T14:42:31;4.05;;;1.48;;
34359;SDS011;20624;55.870;26.506;2023-04-01T14:50:53;11.30;;;1.95;;
34359;SDS011;20624;55.870;26.506;2023-04-01T14:56:00;6.45;;;2.10;;
34359;SDS011;20624;55.870;26.506;2023-04-01T14:58:45;12.95;;;2.35;;
34359;SDS011;20624;55.870;26.506;2023-04-01T15:01:20;11.50;;;2.45;;
34359;SDS011;20624;55.870;26.506;2023-04-01T15:09:26;5.95;;;2.00;;
34359;SDS011;20624;55.870;26.506;2023-04-01T15:12:20;10.38;;;2.08;;
34359;SDS011;20624;55.870;26.506;2023-04-01T15:15:09;6.78;;;2.13;;
34359;SDS011;20624;55.870;26.506;2023-04-01T15:20:25;7.20;;;1.02;;
34359;SDS011;20624;55.870;26.506;2023-04-01T15:23:01;14.80;;;2.40;;
34359;SDS011;20624;55.870;26.506;2023-04-01T15:28:56;4.55;;;1.30;;
34359;SDS011;20624;55.870;26.506;2023-04-01T15:39:00;8.10;;;1.10;;
34359;SDS011;20624;55.870;26.506;2023-04-01T15:52:43;6.95;;;2.00;;
34359;SDS011;20624;55.870;26.506;2023-04-01T16:00:54;8.57;;;1.80;;
34359;SDS011;20624;55.870;26.506;2023-04-01T16:23:35;9.18;;;2.50;;
34359;SDS011;20624;55.870;26.506;2023-04-01T16:26:31;5.78;;;0.85;;
34359;SDS011;20624;55.870;26.506;2023-04-01T16:29:10;15.13;;;2.85;;
34359;SDS011;20624;55.870;26.506;2023-04-01T16:42:25;6.38;;;1.83;;
34359;SDS011;20624;55.870;26.506;2023-04-01T16:47:23;8.10;;;1.92;;
34359;SDS011;20624;55.870;26.506;2023-04-01T16:55:20;6.40;;;2.03;;
34359;SDS011;20624;55.870;26.506;2023-04-01T16:57:52;7.60;;;2.00;;
34359;SDS011;20624;55.870;26.506;2023-04-01T17:00:29;5.60;;;1.63;;
34359;SDS011;20624;55.870;26.506;2023-04-01T17:03:02;4.10;;;1.40;;
34359;SDS011;20624;55.870;26.506;2023-04-01T17:16:56;8.05;;;2.00;;
34359;SDS011;20624;55.870;26.506;2023-04-01T17:22:31;11.18;;;2.28;;
34359;SDS011;20624;55.870;26.506;2023-04-01T17:25:35;5.93;;;1.83;;
34359;SDS011;20624;55.870;26.506;2023-04-01T17:28:20;5.22;;;1.50;;
34359;SDS011;20624;55.870;26.506;2023-04-01T17:36:21;5.82;;;1.52;;
34359;SDS011;20624;55.870;26.506;2023-04-01T17:38:55;5.57;;;1.63;;
34359;SDS011;20624;55.870;26.506;2023-04-01T17:50:22;7.57;;;2.28;;
34359;SDS011;20624;55.870;26.506;2023-04-01T17:53:09;10.55;;;2.67;;
34359;SDS011;20624;55.870;26.506;2023-04-01T17:58:28;10.30;;;3.95;;
34359;SDS011;20624;55.870;26.506;2023-04-01T18:01:31;9.40;;;3.25;;
34359;SDS011;20624;55.870;26.506;2023-04-01T18:11:05;8.93;;;2.30;;
34359;SDS011;20624;55.870;26.506;2023-04-01T18:13:40;6.25;;;1.70;;
34359;SDS011;20624;55.870;26.506;2023-04-01T18:18:52;5.53;;;1.80;;
34359;SDS011;20624;55.870;26.506;2023-04-01T18:24:27;6.30;;;2.00;;
34359;SDS011;20624;55.870;26.506;2023-04-01T18:30:21;13.15;;;2.72;;
34359;SDS011;20624;55.870;26.506;2023-04-01T18:35:47;5.35;;;1.90;;
34359;SDS011;20624;55.870;26.506;2023-04-01T18:38:34;5.72;;;2.03;;
34359;SDS011;20624;55.870;26.506;2023-04-01T18:41:22;10.98;;;3.10;;
34359;SDS011;20624;55.870;26.506;2023-04-01T18:54:19;8.38;;;2.63;;
34359;SDS011;20624;55.870;26.506;2023-04-01T18:57:02;10.50;;;2.65;;
34359;SDS011;20624;55.870;26.506;2023-04-01T19:02:31;5.07;;;2.30;;
34359;SDS011;20624;55.870;26.506;2023-04-01T19:05:19;9.68;;;2.33;;
34359;SDS011;20624;55.870;26.506;2023-04-01T19:07:51;8.85;;;2.38;;
34359;SDS011;20624;55.870;26.506;2023-04-01T19:13:11;5.68;;;2.00;;
34359;SDS011;20624;55.870;26.506;2023-04-01T19:18:42;7.35;;;2.30;;
34359;SDS011;20624;55.870;26.506;2023-04-01T19:24:18;6.53;;;2.00;;
34359;SDS011;20624;55.870;26.506;2023-04-01T19:27:23;5.97;;;2.08;;
34359;SDS011;20624;55.870;26.506;2023-04-01T19:30:38;2.92;;;1.30;;
34359;SDS011;20624;55.870;26.506;2023-04-01T19:33:24;10.63;;;2.65;;
34359;SDS011;20624;55.870;26.506;2023-04-01T19:39:47;9.13;;;2.42;;
34359;SDS011;20624;55.870;26.506;2023-04-01T19:47:14;5.15;;;1.67;;
34359;SDS011;20624;55.870;26.506;2023-04-01T19:50:06;5.35;;;1.95;;
34359;SDS011;20624;55.870;26.506;2023-04-01T19:52:40;15.55;;;3.15;;
34359;SDS011;20624;55.870;26.506;2023-04-01T19:55:25;7.88;;;2.08;;
34359;SDS011;20624;55.870;26.506;2023-04-01T20:01:24;5.72;;;1.25;;
34359;SDS011;20624;55.870;26.506;2023-04-01T20:04:14;19.10;;;2.92;;
34359;SDS011;20624;55.870;26.506;2023-04-01T20:07:30;8.20;;;1.85;;
34359;SDS011;20624;55.870;26.506;2023-04-01T20:10:03;5.20;;;1.33;;
34359;SDS011;20624;55.870;26.506;2023-04-01T20:12:41;5.95;;;1.67;;
34359;SDS011;20624;55.870;26.506;2023-04-01T20:15:23;6.20;;;1.33;;
34359;SDS011;20624;55.870;26.506;2023-04-01T20:17:54;7.97;;;2.10;;
34359;SDS011;20624;55.870;26.506;2023-04-01T20:20:26;5.88;;;1.40;;
34359;SDS011;20624;55.870;26.506;2023-04-01T20:25:33;7.90;;;2.00;;
34359;SDS011;20624;55.870;26.506;2023-04-01T20:30:50;11.65;;;2.80;;
34359;SDS011;20624;55.870;26.506;2023-04-01T20:39:38;6.35;;;1.90;;
34359;SDS011;20624;55.870;26.506;2023-04-01T20:42:22;6.35;;;1.58;;
34359;SDS011;20624;55.870;26.506;2023-04-01T20:50:47;8.65;;;1.20;;
34359;SDS011;20624;55.870;26.506;2023-04-01T20:53:25;5.63;;;1.35;;
34359;SDS011;20624;55.870;26.506;2023-04-01T20:56:14;12.48;;;2.05;;
34359;SDS011;20624;55.870;26.506;2023-04-01T20:59:07;8.40;;;1.67;;
34359;SDS011;20624;55.870;26.506;2023-04-01T21:05:21;3.42;;;0.73;;
34359;SDS011;20624;55.870;26.506;2023-04-01T21:08:19;4.70;;;1.25;;
34359;SDS011;20624;55.870;26.506;2023-04-01T21:16:47;10.68;;;2.10;;
34359;SDS011;20624;55.870;26.506;2023-04-01T21:19:32;4.25;;;0.68;;
34359;SDS011;20624;55.870;26.506;2023-04-01T21:22:30;3.75;;;0.57;;
34359;SDS011;20624;55.870;26.506;2023-04-01T21:25:08;4.18;;;0.70;;
34359;SDS011;20624;55.870;26.506;2023-04-01T21:28:00;3.53;;;0.63;;
34359;SDS011;20624;55.870;26.506;2023-04-01T21:33:35;5.13;;;1.35;;
34359;SDS011;20624;55.870;26.506;2023-04-01T21:39:27;9.50;;;1.35;;
34359;SDS011;20624;55.870;26.506;2023-04-01T21:47:36;5.32;;;1.50;;
34359;SDS011;20624;55.870;26.506;2023-04-01T21:58:31;6.05;;;1.30;;
34359;SDS011;20624;55.870;26.506;2023-04-01T22:07:42;6.75;;;1.50;;
34359;SDS011;20624;55.870;26.506;2023-04-01T22:13:15;5.13;;;0.98;;
34359;SDS011;20624;55.870;26.506;2023-04-01T22:15:59;4.28;;;0.85;;
34359;SDS011;20624;55.870;26.506;2023-04-01T22:18:41;4.22;;;1.10;;
34359;SDS011;20624;55.870;26.506;2023-04-01T22:21:22;5.85;;;1.00;;
34359;SDS011;20624;55.870;26.506;2023-04-01T22:32:10;6.20;;;1.20;;
34359;SDS011;20624;55.870;26.506;2023-04-01T22:35:06;9.88;;;1.52;;
34359;SDS011;20624;55.870;26.506;2023-04-01T22:40:12;3.85;;;1.13;;
34359;SDS011;20624;55.870;26.506;2023-04-01T22:42:51;8.68;;;1.77;;
34359;SDS011;20624;55.870;26.506;2023-04-01T22:56:01;3.40;;;0.93;;
34359;SDS011;20624;55.870;26.506;2023-04-01T22:58:34;6.97;;;1.55;;
34359;SDS011;20624;55.870;26.506;2023-04-01T23:01:07;3.45;;;0.60;;
34359;SDS011;20624;55.870;26.506;2023-04-01T23:03:42;3.38;;;0.88;;
34359;SDS011;20624;55.870;26.506;2023-04-01T23:06:14;3.58;;;0.88;;
34359;SDS011;20624;55.870;26.506;2023-04-01T23:09:08;7.18;;;1.52;;
34359;SDS011;20624;55.870;26.506;2023-04-01T23:12:11;6.20;;;1.65;;
34359;SDS011;20624;55.870;26.506;2023-04-01T23:14:36;7.60;;;1.50;;
34359;SDS011;20624;55.870;26.506;2023-04-01T23:17:11;4.22;;;0.80;;
34359;SDS011;20624;55.870;26.506;2023-04-01T23:23:32;5.60;;;1.30;;
34359;SDS011;20624;55.870;26.506;2023-04-01T23:26:45;4.88;;;1.20;;
34359;SDS011;20624;55.870;26.506;2023-04-01T23:29:14;7.22;;;1.80;;
34359;SDS011;20624;55.870;26.506;2023-04-01T23:31:45;7.78;;;1.60;;
34359;SDS011;20624;55.870;26.506;2023-04-01T23:36:45;2.85;;;0.90;;
34359;SDS011;20624;55.870;26.506;2023-04-01T23:44:51;5.07;;;1.52;;
34359;SDS011;20624;55.870;26.506;2023-04-01T23:47:23;5.40;;;1.20;;
34359;SDS011;20624;55.870;26.506;2023-04-01T23:50:10;9.43;;;1.08;;
34359;SDS011;20624;55.870;26.506;2023-04-01T23:52:43;13.80;;;2.67;;
34359;SDS011;20624;55.870;26.506;2023-04-01T23:55:19;6.30;;;1.33;;
